Terminal Aerodrome Forecast
Issued by NWS Atlanta, GA

Home | Current Version | Previous Version | Text Only | Print | Product List | Glossary On
Versions: 1 2 3 4 5 6 7 8 9 10 11 12 13 14 15 16 17 18 19 20 21 22 23 24 25 26 27 28 29 30 31 32 33 34
000
FTUS42 KFFC 200739 AAA
TAFCSG
TAF AMD
KCSG 200739Z 2008/2106 24007KT P6SM FEW040 BKN200
     FM201000 25008KT P6SM SCT040 BKN200
      TEMPO 2011/2014 4SM TSRA BKN035CB
     FM201400 25008KT P6SM SCT030
     FM201700 24014G22KT P6SM VCSH SCT045 SCT080
     FM202100 25015G25KT 6SM -TSRA BKN035CB
     FM210000 24010KT P6SM BKN250=

USA.gov is the U.S. government's official web portal to all federal, state and local government web resources and services.